sensor_id;sensor_type;location;lat;lon;timestamp;P1;durP1;ratioP1;P2;durP2;ratioP2
30096;SDS011;16915;51.466;3.610;2023-03-02T00:06:44;5.75;;;4.60;;
30096;SDS011;16915;51.466;3.610;2023-03-02T00:09:10;9.27;;;4.72;;
30096;SDS011;16915;51.466;3.610;2023-03-02T00:11:36;6.60;;;4.53;;
30096;SDS011;16915;51.466;3.610;2023-03-02T00:14:03;11.27;;;4.93;;
30096;SDS011;16915;51.466;3.610;2023-03-02T00:16:29;6.28;;;4.80;;
30096;SDS011;16915;51.466;3.610;2023-03-02T00:18:54;9.68;;;5.13;;
30096;SDS011;16915;51.466;3.610;2023-03-02T00:21:20;7.03;;;4.85;;
30096;SDS011;16915;51.466;3.610;2023-03-02T00:23:48;8.40;;;4.90;;
30096;SDS011;16915;51.466;3.610;2023-03-02T00:26:13;6.97;;;4.25;;
30096;SDS011;16915;51.466;3.610;2023-03-02T00:28:39;11.10;;;4.93;;
30096;SDS011;16915;51.466;3.610;2023-03-02T00:31:04;6.85;;;5.03;;
30096;SDS011;16915;51.466;3.610;2023-03-02T00:33:31;9.07;;;5.20;;
30096;SDS011;16915;51.466;3.610;2023-03-02T00:35:57;7.07;;;4.95;;
30096;SDS011;16915;51.466;3.610;2023-03-02T00:38:22;6.18;;;4.93;;
30096;SDS011;16915;51.466;3.610;2023-03-02T00:40:49;7.28;;;4.57;;
30096;SDS011;16915;51.466;3.610;2023-03-02T00:43:15;6.22;;;4.50;;
30096;SDS011;16915;51.466;3.610;2023-03-02T00:45:41;11.38;;;4.75;;
30096;SDS011;16915;51.466;3.610;2023-03-02T00:48:07;6.35;;;4.78;;
30096;SDS011;16915;51.466;3.610;2023-03-02T00:50:33;6.38;;;4.68;;
30096;SDS011;16915;51.466;3.610;2023-03-02T00:53:05;7.40;;;4.65;;
30096;SDS011;16915;51.466;3.610;2023-03-02T00:55:32;8.80;;;4.97;;
30096;SDS011;16915;51.466;3.610;2023-03-02T00:57:57;6.80;;;4.50;;
30096;SDS011;16915;51.466;3.610;2023-03-02T01:00:23;10.25;;;5.45;;
30096;SDS011;16915;51.466;3.610;2023-03-02T01:02:51;10.65;;;5.75;;
30096;SDS011;16915;51.466;3.610;2023-03-02T01:05:17;8.25;;;4.68;;
30096;SDS011;16915;51.466;3.610;2023-03-02T01:07:42;9.77;;;5.53;;
30096;SDS011;16915;51.466;3.610;2023-03-02T01:10:08;7.63;;;4.72;;
30096;SDS011;16915;51.466;3.610;2023-03-02T01:12:34;9.48;;;5.32;;
30096;SDS011;16915;51.466;3.610;2023-03-02T01:15:00;8.30;;;4.82;;
30096;SDS011;16915;51.466;3.610;2023-03-02T01:17:26;8.35;;;5.05;;
30096;SDS011;16915;51.466;3.610;2023-03-02T01:19:52;6.28;;;4.80;;
30096;SDS011;16915;51.466;3.610;2023-03-02T01:22:18;8.65;;;4.95;;
30096;SDS011;16915;51.466;3.610;2023-03-02T01:24:44;9.15;;;4.78;;
30096;SDS011;16915;51.466;3.610;2023-03-02T01:27:10;9.18;;;5.38;;
30096;SDS011;16915;51.466;3.610;2023-03-02T01:29:36;6.43;;;4.47;;
30096;SDS011;16915;51.466;3.610;2023-03-02T01:32:02;10.02;;;4.45;;
30096;SDS011;16915;51.466;3.610;2023-03-02T01:34:27;6.38;;;4.70;;
30096;SDS011;16915;51.466;3.610;2023-03-02T01:36:53;9.05;;;4.93;;
30096;SDS011;16915;51.466;3.610;2023-03-02T01:39:19;6.68;;;4.93;;
30096;SDS011;16915;51.466;3.610;2023-03-02T01:41:46;6.85;;;4.65;;
30096;SDS011;16915;51.466;3.610;2023-03-02T01:47:04;9.77;;;5.22;;
30096;SDS011;16915;51.466;3.610;2023-03-02T01:49:40;8.85;;;5.40;;
30096;SDS011;16915;51.466;3.610;2023-03-02T01:54:38;9.50;;;4.93;;
30096;SDS011;16915;51.466;3.610;2023-03-02T01:57:05;7.60;;;5.15;;
30096;SDS011;16915;51.466;3.610;2023-03-02T01:59:32;9.65;;;4.90;;
30096;SDS011;16915;51.466;3.610;2023-03-02T02:02:01;6.82;;;4.60;;
30096;SDS011;16915;51.466;3.610;2023-03-02T02:04:30;6.32;;;5.07;;
30096;SDS011;16915;51.466;3.610;2023-03-02T02:07:00;8.23;;;5.07;;
30096;SDS011;16915;51.466;3.610;2023-03-02T02:09:27;6.20;;;4.93;;
30096;SDS011;16915;51.466;3.610;2023-03-02T02:11:55;8.23;;;5.05;;
30096;SDS011;16915;51.466;3.610;2023-03-02T02:14:21;9.23;;;5.25;;
30096;SDS011;16915;51.466;3.610;2023-03-02T02:16:47;8.18;;;5.03;;
30096;SDS011;16915;51.466;3.610;2023-03-02T02:19:17;9.55;;;5.70;;
30096;SDS011;16915;51.466;3.610;2023-03-02T02:22:02;9.10;;;5.60;;
30096;SDS011;16915;51.466;3.610;2023-03-02T02:24:30;11.05;;;6.30;;
30096;SDS011;16915;51.466;3.610;2023-03-02T02:27:02;11.77;;;5.55;;
30096;SDS011;16915;51.466;3.610;2023-03-02T02:29:40;9.63;;;5.80;;
30096;SDS011;16915;51.466;3.610;2023-03-02T02:32:19;11.85;;;6.55;;
30096;SDS011;16915;51.466;3.610;2023-03-02T02:37:37;9.82;;;6.55;;
30096;SDS011;16915;51.466;3.610;2023-03-02T02:40:06;13.15;;;6.00;;
30096;SDS011;16915;51.466;3.610;2023-03-02T02:42:40;15.05;;;7.00;;
30096;SDS011;16915;51.466;3.610;2023-03-02T02:45:17;12.77;;;7.47;;
30096;SDS011;16915;51.466;3.610;2023-03-02T02:47:48;15.40;;;7.32;;
30096;SDS011;16915;51.466;3.610;2023-03-02T02:50:16;16.63;;;8.93;;
30096;SDS011;16915;51.466;3.610;2023-03-02T02:52:50;19.35;;;8.57;;
30096;SDS011;16915;51.466;3.610;2023-03-02T02:55:21;17.15;;;9.23;;
30096;SDS011;16915;51.466;3.610;2023-03-02T02:57:49;17.48;;;9.93;;
30096;SDS011;16915;51.466;3.610;2023-03-02T03:00:18;17.52;;;10.00;;
30096;SDS011;16915;51.466;3.610;2023-03-02T03:02:46;17.15;;;9.98;;
30096;SDS011;16915;51.466;3.610;2023-03-02T03:05:15;18.57;;;9.17;;
30096;SDS011;16915;51.466;3.610;2023-03-02T03:07:41;20.38;;;10.48;;
30096;SDS011;16915;51.466;3.610;2023-03-02T03:10:17;18.65;;;10.60;;
30096;SDS011;16915;51.466;3.610;2023-03-02T03:12:44;20.42;;;11.13;;
30096;SDS011;16915;51.466;3.610;2023-03-02T03:15:10;26.98;;;11.25;;
30096;SDS011;16915;51.466;3.610;2023-03-02T03:17:37;26.80;;;10.93;;
30096;SDS011;16915;51.466;3.610;2023-03-02T03:20:03;24.50;;;11.50;;
30096;SDS011;16915;51.466;3.610;2023-03-02T03:22:33;24.77;;;12.38;;
30096;SDS011;16915;51.466;3.610;2023-03-02T03:25:00;23.25;;;12.13;;
30096;SDS011;16915;51.466;3.610;2023-03-02T03:27:26;27.17;;;12.77;;
30096;SDS011;16915;51.466;3.610;2023-03-02T03:29:51;29.38;;;15.15;;
30096;SDS011;16915;51.466;3.610;2023-03-02T03:32:17;31.63;;;14.85;;
30096;SDS011;16915;51.466;3.610;2023-03-02T03:34:43;33.55;;;14.85;;
30096;SDS011;16915;51.466;3.610;2023-03-02T03:37:11;32.80;;;15.43;;
30096;SDS011;16915;51.466;3.610;2023-03-02T03:39:39;33.58;;;16.40;;
30096;SDS011;16915;51.466;3.610;2023-03-02T03:42:04;39.05;;;17.67;;
30096;SDS011;16915;51.466;3.610;2023-03-02T03:44:30;34.28;;;16.27;;
30096;SDS011;16915;51.466;3.610;2023-03-02T03:46:56;40.00;;;17.23;;
30096;SDS011;16915;51.466;3.610;2023-03-02T03:49:22;32.20;;;15.98;;
30096;SDS011;16915;51.466;3.610;2023-03-02T03:51:48;38.00;;;18.13;;
30096;SDS011;16915;51.466;3.610;2023-03-02T03:54:14;38.15;;;19.25;;
30096;SDS011;16915;51.466;3.610;2023-03-02T03:56:41;43.33;;;19.88;;
30096;SDS011;16915;51.466;3.610;2023-03-02T03:59:09;38.17;;;17.40;;
30096;SDS011;16915;51.466;3.610;2023-03-02T04:01:38;46.25;;;20.42;;
30096;SDS011;16915;51.466;3.610;2023-03-02T04:04:05;38.40;;;19.13;;
30096;SDS011;16915;51.466;3.610;2023-03-02T04:06:32;40.63;;;18.73;;
30096;SDS011;16915;51.466;3.610;2023-03-02T04:08:58;42.70;;;20.08;;
30096;SDS011;16915;51.466;3.610;2023-03-02T04:11:28;39.55;;;19.50;;
30096;SDS011;16915;51.466;3.610;2023-03-02T04:13:58;39.40;;;19.45;;
30096;SDS011;16915;51.466;3.610;2023-03-02T04:16:23;37.72;;;18.17;;
30096;SDS011;16915;51.466;3.610;2023-03-02T04:18:49;40.20;;;17.80;;
30096;SDS011;16915;51.466;3.610;2023-03-02T04:21:14;37.40;;;18.75;;
30096;SDS011;16915;51.466;3.610;2023-03-02T04:23:40;41.88;;;19.98;;
30096;SDS011;16915;51.466;3.610;2023-03-02T04:26:06;42.22;;;19.83;;
30096;SDS011;16915;51.466;3.610;2023-03-02T04:28:32;44.08;;;19.98;;
30096;SDS011;16915;51.466;3.610;2023-03-02T04:30:57;40.05;;;17.35;;
30096;SDS011;16915;51.466;3.610;2023-03-02T04:33:23;46.85;;;20.52;;
30096;SDS011;16915;51.466;3.610;2023-03-02T04:35:49;43.42;;;19.90;;
30096;SDS011;16915;51.466;3.610;2023-03-02T04:38:14;39.85;;;19.65;;
30096;SDS011;16915;51.466;3.610;2023-03-02T04:40:40;46.08;;;20.65;;
30096;SDS011;16915;51.466;3.610;2023-03-02T04:43:05;45.33;;;19.98;;
30096;SDS011;16915;51.466;3.610;2023-03-02T04:45:31;43.50;;;19.58;;
30096;SDS011;16915;51.466;3.610;2023-03-02T04:47:57;40.38;;;20.13;;
30096;SDS011;16915;51.466;3.610;2023-03-02T04:50:22;43.05;;;18.73;;
30096;SDS011;16915;51.466;3.610;2023-03-02T04:52:48;36.33;;;18.02;;
30096;SDS011;16915;51.466;3.610;2023-03-02T04:55:17;40.00;;;18.65;;
30096;SDS011;16915;51.466;3.610;2023-03-02T04:57:45;44.35;;;19.83;;
30096;SDS011;16915;51.466;3.610;2023-03-02T05:00:11;40.83;;;16.88;;
30096;SDS011;16915;51.466;3.610;2023-03-02T05:02:38;39.95;;;18.98;;
30096;SDS011;16915;51.466;3.610;2023-03-02T05:05:04;42.78;;;18.67;;
30096;SDS011;16915;51.466;3.610;2023-03-02T05:07:30;44.75;;;19.35;;
30096;SDS011;16915;51.466;3.610;2023-03-02T05:09:56;40.50;;;17.98;;
30096;SDS011;16915;51.466;3.610;2023-03-02T05:12:21;46.55;;;17.35;;
30096;SDS011;16915;51.466;3.610;2023-03-02T05:14:47;42.63;;;18.70;;
30096;SDS011;16915;51.466;3.610;2023-03-02T05:17:13;45.25;;;19.88;;
30096;SDS011;16915;51.466;3.610;2023-03-02T05:19:38;42.95;;;18.25;;
30096;SDS011;16915;51.466;3.610;2023-03-02T05:22:04;43.15;;;18.67;;
30096;SDS011;16915;51.466;3.610;2023-03-02T05:24:29;41.47;;;18.58;;
30096;SDS011;16915;51.466;3.610;2023-03-02T05:26:55;41.97;;;18.88;;
30096;SDS011;16915;51.466;3.610;2023-03-02T05:29:21;46.17;;;18.20;;
30096;SDS011;16915;51.466;3.610;2023-03-02T05:31:46;44.85;;;18.85;;
30096;SDS011;16915;51.466;3.610;2023-03-02T05:34:13;42.95;;;18.02;;
30096;SDS011;16915;51.466;3.610;2023-03-02T05:36:40;44.38;;;18.45;;
30096;SDS011;16915;51.466;3.610;2023-03-02T05:39:07;40.80;;;18.85;;
30096;SDS011;16915;51.466;3.610;2023-03-02T05:41:33;41.75;;;18.55;;
30096;SDS011;16915;51.466;3.610;2023-03-02T05:43:59;50.88;;;19.50;;
30096;SDS011;16915;51.466;3.610;2023-03-02T05:46:25;36.42;;;16.35;;
30096;SDS011;16915;51.466;3.610;2023-03-02T05:48:51;41.13;;;17.15;;
30096;SDS011;16915;51.466;3.610;2023-03-02T05:51:17;38.67;;;17.33;;
30096;SDS011;16915;51.466;3.610;2023-03-02T05:53:42;42.70;;;18.35;;
30096;SDS011;16915;51.466;3.610;2023-03-02T05:56:08;44.55;;;18.27;;
30096;SDS011;16915;51.466;3.610;2023-03-02T05:58:34;37.72;;;18.00;;
30096;SDS011;16915;51.466;3.610;2023-03-02T06:00:59;43.70;;;18.83;;
30096;SDS011;16915;51.466;3.610;2023-03-02T06:03:25;40.90;;;19.35;;
30096;SDS011;16915;51.466;3.610;2023-03-02T06:05:51;43.63;;;18.67;;
30096;SDS011;16915;51.466;3.610;2023-03-02T06:08:17;45.30;;;18.80;;
30096;SDS011;16915;51.466;3.610;2023-03-02T06:10:43;46.33;;;18.67;;
30096;SDS011;16915;51.466;3.610;2023-03-02T06:13:09;50.10;;;18.95;;
30096;SDS011;16915;51.466;3.610;2023-03-02T06:15:35;40.50;;;19.13;;
30096;SDS011;16915;51.466;3.610;2023-03-02T06:18:01;46.47;;;18.92;;
30096;SDS011;16915;51.466;3.610;2023-03-02T06:20:27;41.13;;;17.30;;
30096;SDS011;16915;51.466;3.610;2023-03-02T06:22:52;46.83;;;19.00;;
30096;SDS011;16915;51.466;3.610;2023-03-02T06:25:20;45.05;;;18.95;;
30096;SDS011;16915;51.466;3.610;2023-03-02T06:27:47;45.17;;;18.48;;
30096;SDS011;16915;51.466;3.610;2023-03-02T06:30:16;46.67;;;19.13;;
30096;SDS011;16915;51.466;3.610;2023-03-02T06:32:43;45.10;;;18.48;;
30096;SDS011;16915;51.466;3.610;2023-03-02T06:35:09;47.67;;;20.77;;
30096;SDS011;16915;51.466;3.610;2023-03-02T06:37:36;47.08;;;20.60;;
30096;SDS011;16915;51.466;3.610;2023-03-02T06:40:02;48.92;;;20.08;;
30096;SDS011;16915;51.466;3.610;2023-03-02T06:42:35;54.25;;;19.77;;
30096;SDS011;16915;51.466;3.610;2023-03-02T06:45:01;45.75;;;18.98;;
30096;SDS011;16915;51.466;3.610;2023-03-02T06:47:27;49.25;;;19.70;;
30096;SDS011;16915;51.466;3.610;2023-03-02T06:49:53;45.35;;;19.67;;
30096;SDS011;16915;51.466;3.610;2023-03-02T06:52:18;48.45;;;18.77;;
30096;SDS011;16915;51.466;3.610;2023-03-02T06:54:44;41.67;;;19.48;;
30096;SDS011;16915;51.466;3.610;2023-03-02T06:57:09;42.95;;;19.13;;
30096;SDS011;16915;51.466;3.610;2023-03-02T06:59:35;46.08;;;19.67;;
30096;SDS011;16915;51.466;3.610;2023-03-02T07:02:01;44.70;;;19.80;;
30096;SDS011;16915;51.466;3.610;2023-03-02T07:04:26;50.13;;;22.13;;
30096;SDS011;16915;51.466;3.610;2023-03-02T07:06:55;47.92;;;19.65;;
30096;SDS011;16915;51.466;3.610;2023-03-02T07:09:20;49.33;;;20.50;;
30096;SDS011;16915;51.466;3.610;2023-03-02T07:11:46;42.05;;;18.80;;
30096;SDS011;16915;51.466;3.610;2023-03-02T07:14:12;42.97;;;19.27;;
30096;SDS011;16915;51.466;3.610;2023-03-02T07:16:38;53.65;;;20.63;;
30096;SDS011;16915;51.466;3.610;2023-03-02T07:19:03;44.60;;;20.23;;
30096;SDS011;16915;51.466;3.610;2023-03-02T07:21:29;42.63;;;17.63;;
30096;SDS011;16915;51.466;3.610;2023-03-02T07:23:54;44.97;;;19.85;;
30096;SDS011;16915;51.466;3.610;2023-03-02T07:26:20;47.03;;;20.33;;
30096;SDS011;16915;51.466;3.610;2023-03-02T07:28:46;46.33;;;20.02;;
30096;SDS011;16915;51.466;3.610;2023-03-02T07:31:11;43.85;;;19.30;;
30096;SDS011;16915;51.466;3.610;2023-03-02T07:33:37;45.88;;;18.73;;
30096;SDS011;16915;51.466;3.610;2023-03-02T07:36:04;44.25;;;19.48;;
30096;SDS011;16915;51.466;3.610;2023-03-02T07:38:30;45.40;;;19.65;;
30096;SDS011;16915;51.466;3.610;2023-03-02T07:40:56;44.75;;;18.65;;
30096;SDS011;16915;51.466;3.610;2023-03-02T07:43:22;46.40;;;19.85;;
30096;SDS011;16915;51.466;3.610;2023-03-02T07:45:51;44.78;;;19.23;;
30096;SDS011;16915;51.466;3.610;2023-03-02T07:48:16;43.33;;;19.23;;
30096;SDS011;16915;51.466;3.610;2023-03-02T07:50:43;45.85;;;18.50;;
30096;SDS011;16915;51.466;3.610;2023-03-02T07:53:09;46.10;;;19.65;;
30096;SDS011;16915;51.466;3.610;2023-03-02T07:55:38;43.22;;;18.58;;
30096;SDS011;16915;51.466;3.610;2023-03-02T07:58:05;43.80;;;18.77;;
30096;SDS011;16915;51.466;3.610;2023-03-02T08:00:30;39.92;;;18.17;;
30096;SDS011;16915;51.466;3.610;2023-03-02T08:02:56;39.88;;;17.15;;
30096;SDS011;16915;51.466;3.610;2023-03-02T08:05:21;41.75;;;18.65;;
30096;SDS011;16915;51.466;3.610;2023-03-02T08:07:47;42.60;;;17.65;;
30096;SDS011;16915;51.466;3.610;2023-03-02T08:10:13;41.17;;;18.20;;
30096;SDS011;16915;51.466;3.610;2023-03-02T08:12:38;43.00;;;17.50;;
30096;SDS011;16915;51.466;3.610;2023-03-02T08:15:04;41.70;;;17.38;;
30096;SDS011;16915;51.466;3.610;2023-03-02T08:17:31;37.17;;;16.35;;
30096;SDS011;16915;51.466;3.610;2023-03-02T08:19:56;42.30;;;17.25;;
30096;SDS011;16915;51.466;3.610;2023-03-02T08:22:22;40.22;;;17.58;;
30096;SDS011;16915;51.466;3.610;2023-03-02T08:24:47;37.13;;;16.92;;
30096;SDS011;16915;51.466;3.610;2023-03-02T08:27:13;29.50;;;14.60;;
30096;SDS011;16915;51.466;3.610;2023-03-02T08:29:40;30.35;;;15.25;;
30096;SDS011;16915;51.466;3.610;2023-03-02T08:32:06;31.38;;;14.77;;
30096;SDS011;16915;51.466;3.610;2023-03-02T08:34:31;33.35;;;14.57;;
30096;SDS011;16915;51.466;3.610;2023-03-02T08:36:57;38.58;;;16.35;;
30096;SDS011;16915;51.466;3.610;2023-03-02T08:39:23;34.17;;;15.52;;
30096;SDS011;16915;51.466;3.610;2023-03-02T08:41:52;40.83;;;16.88;;
30096;SDS011;16915;51.466;3.610;2023-03-02T08:44:18;32.63;;;15.63;;
30096;SDS011;16915;51.466;3.610;2023-03-02T08:46:45;34.92;;;14.85;;
30096;SDS011;16915;51.466;3.610;2023-03-02T08:49:13;30.65;;;14.80;;
30096;SDS011;16915;51.466;3.610;2023-03-02T08:51:38;33.65;;;14.45;;
30096;SDS011;16915;51.466;3.610;2023-03-02T08:54:04;28.55;;;12.38;;
30096;SDS011;16915;51.466;3.610;2023-03-02T08:56:31;28.08;;;13.63;;
30096;SDS011;16915;51.466;3.610;2023-03-02T08:59:01;20.63;;;10.10;;
30096;SDS011;16915;51.466;3.610;2023-03-02T09:01:35;33.03;;;14.82;;
30096;SDS011;16915;51.466;3.610;2023-03-02T09:04:01;29.42;;;13.70;;
30096;SDS011;16915;51.466;3.610;2023-03-02T09:06:29;28.85;;;13.68;;
30096;SDS011;16915;51.466;3.610;2023-03-02T09:08:56;27.70;;;14.45;;
30096;SDS011;16915;51.466;3.610;2023-03-02T09:11:22;26.45;;;12.75;;
30096;SDS011;16915;51.466;3.610;2023-03-02T09:13:49;29.13;;;14.13;;
30096;SDS011;16915;51.466;3.610;2023-03-02T09:16:14;25.52;;;13.30;;
30096;SDS011;16915;51.466;3.610;2023-03-02T09:18:44;27.13;;;13.60;;
30096;SDS011;16915;51.466;3.610;2023-03-02T09:21:09;24.13;;;12.00;;
30096;SDS011;16915;51.466;3.610;2023-03-02T09:23:35;21.52;;;11.50;;
30096;SDS011;16915;51.466;3.610;2023-03-02T09:26:01;25.95;;;13.07;;
30096;SDS011;16915;51.466;3.610;2023-03-02T09:28:28;30.88;;;13.18;;
30096;SDS011;16915;51.466;3.610;2023-03-02T09:30:55;31.33;;;13.85;;
30096;SDS011;16915;51.466;3.610;2023-03-02T09:33:22;24.27;;;12.50;;
30096;SDS011;16915;51.466;3.610;2023-03-02T09:35:48;25.95;;;12.23;;
30096;SDS011;16915;51.466;3.610;2023-03-02T09:38:15;24.25;;;12.38;;
30096;SDS011;16915;51.466;3.610;2023-03-02T09:41:31;30.80;;;11.52;;
30096;SDS011;16915;51.466;3.610;2023-03-02T09:43:42;25.52;;;11.20;;
30096;SDS011;16915;51.466;3.610;2023-03-02T09:46:33;21.65;;;11.30;;
30096;SDS011;16915;51.466;3.610;2023-03-02T09:52:29;23.00;;;11.13;;
30096;SDS011;16915;51.466;3.610;2023-03-02T09:54:59;24.88;;;13.13;;
30096;SDS011;16915;51.466;3.610;2023-03-02T09:57:47;23.45;;;13.27;;
30096;SDS011;16915;51.466;3.610;2023-03-02T10:00:33;21.40;;;11.82;;
30096;SDS011;16915;51.466;3.610;2023-03-02T10:03:09;18.90;;;10.63;;
30096;SDS011;16915;51.466;3.610;2023-03-02T10:05:47;19.92;;;11.77;;
30096;SDS011;16915;51.466;3.610;2023-03-02T10:08:16;21.85;;;11.45;;
30096;SDS011;16915;51.466;3.610;2023-03-02T10:10:52;25.77;;;12.80;;
30096;SDS011;16915;51.466;3.610;2023-03-02T10:13:20;19.48;;;11.15;;
30096;SDS011;16915;51.466;3.610;2023-03-02T10:18:46;21.70;;;10.73;;
30096;SDS011;16915;51.466;3.610;2023-03-02T10:21:27;20.55;;;11.75;;
30096;SDS011;16915;51.466;3.610;2023-03-02T10:32:18;20.95;;;11.27;;
30096;SDS011;16915;51.466;3.610;2023-03-02T10:34:46;19.55;;;11.18;;
30096;SDS011;16915;51.466;3.610;2023-03-02T10:37:15;18.17;;;11.20;;
30096;SDS011;16915;51.466;3.610;2023-03-02T10:39:42;20.42;;;11.32;;
30096;SDS011;16915;51.466;3.610;2023-03-02T10:42:41;17.88;;;11.10;;
30096;SDS011;16915;51.466;3.610;2023-03-02T10:47:58;19.25;;;11.00;;
30096;SDS011;16915;51.466;3.610;2023-03-02T10:50:28;21.35;;;12.00;;
30096;SDS011;16915;51.466;3.610;2023-03-02T10:52:54;21.20;;;10.57;;
30096;SDS011;16915;51.466;3.610;2023-03-02T10:55:20;19.98;;;11.52;;
30096;SDS011;16915;51.466;3.610;2023-03-02T10:57:55;18.45;;;11.13;;
30096;SDS011;16915;51.466;3.610;2023-03-02T11:00:31;17.92;;;11.38;;
30096;SDS011;16915;51.466;3.610;2023-03-02T11:03:02;19.42;;;12.07;;
30096;SDS011;16915;51.466;3.610;2023-03-02T11:05:43;19.70;;;11.32;;
30096;SDS011;16915;51.466;3.610;2023-03-02T11:08:10;17.70;;;11.52;;
30096;SDS011;16915;51.466;3.610;2023-03-02T11:13:31;18.15;;;11.32;;
30096;SDS011;16915;51.466;3.610;2023-03-02T11:16:21;18.88;;;11.23;;
30096;SDS011;16915;51.466;3.610;2023-03-02T11:18:59;19.35;;;11.50;;
30096;SDS011;16915;51.466;3.610;2023-03-02T11:26:49;16.88;;;10.02;;
30096;SDS011;16915;51.466;3.610;2023-03-02T11:32:21;15.85;;;9.48;;
30096;SDS011;16915;51.466;3.610;2023-03-02T11:37:22;17.67;;;10.52;;
30096;SDS011;16915;51.466;3.610;2023-03-02T11:42:21;17.08;;;9.85;;
30096;SDS011;16915;51.466;3.610;2023-03-02T11:44:49;16.83;;;9.70;;
30096;SDS011;16915;51.466;3.610;2023-03-02T11:47:15;17.38;;;11.05;;
30096;SDS011;16915;51.466;3.610;2023-03-02T11:49:47;15.32;;;10.13;;
30096;SDS011;16915;51.466;3.610;2023-03-02T11:52:23;16.45;;;10.35;;
30096;SDS011;16915;51.466;3.610;2023-03-02T11:54:53;15.85;;;10.50;;
30096;SDS011;16915;51.466;3.610;2023-03-02T11:57:22;17.08;;;10.43;;
30096;SDS011;16915;51.466;3.610;2023-03-02T11:59:52;15.48;;;9.82;;
30096;SDS011;16915;51.466;3.610;2023-03-02T12:02:19;17.25;;;10.30;;
30096;SDS011;16915;51.466;3.610;2023-03-02T12:04:45;16.15;;;10.82;;
30096;SDS011;16915;51.466;3.610;2023-03-02T12:07:22;15.77;;;9.77;;
30096;SDS011;16915;51.466;3.610;2023-03-02T12:10:04;14.10;;;9.70;;
30096;SDS011;16915;51.466;3.610;2023-03-02T12:12:57;15.60;;;10.18;;
30096;SDS011;16915;51.466;3.610;2023-03-02T12:15:36;18.23;;;11.27;;
30096;SDS011;16915;51.466;3.610;2023-03-02T12:18:41;17.95;;;10.77;;
30096;SDS011;16915;51.466;3.610;2023-03-02T12:21:11;15.57;;;10.68;;
30096;SDS011;16915;51.466;3.610;2023-03-02T12:31:25;17.63;;;9.57;;
30096;SDS011;16915;51.466;3.610;2023-03-02T12:33:51;14.73;;;9.82;;
30096;SDS011;16915;51.466;3.610;2023-03-02T12:36:18;14.52;;;9.27;;
30096;SDS011;16915;51.466;3.610;2023-03-02T12:41:38;12.13;;;9.27;;
30096;SDS011;16915;51.466;3.610;2023-03-02T12:45:14;13.23;;;9.02;;
30096;SDS011;16915;51.466;3.610;2023-03-02T12:47:50;13.18;;;8.43;;
30096;SDS011;16915;51.466;3.610;2023-03-02T12:50:30;12.15;;;8.65;;
30096;SDS011;16915;51.466;3.610;2023-03-02T12:53:01;12.82;;;9.05;;
30096;SDS011;16915;51.466;3.610;2023-03-02T12:55:31;13.93;;;9.50;;
30096;SDS011;16915;51.466;3.610;2023-03-02T12:57:58;11.73;;;8.73;;
30096;SDS011;16915;51.466;3.610;2023-03-02T13:00:27;14.70;;;8.80;;
30096;SDS011;16915;51.466;3.610;2023-03-02T13:02:58;12.38;;;9.38;;
30096;SDS011;16915;51.466;3.610;2023-03-02T13:05:27;11.65;;;8.80;;
30096;SDS011;16915;51.466;3.610;2023-03-02T13:07:57;13.57;;;9.45;;
30096;SDS011;16915;51.466;3.610;2023-03-02T13:10:35;15.15;;;9.73;;
30096;SDS011;16915;51.466;3.610;2023-03-02T13:13:21;14.13;;;10.00;;
30096;SDS011;16915;51.466;3.610;2023-03-02T13:15:53;13.68;;;9.50;;
30096;SDS011;16915;51.466;3.610;2023-03-02T13:18:25;14.95;;;10.27;;
30096;SDS011;16915;51.466;3.610;2023-03-02T13:20:55;12.65;;;8.93;;
30096;SDS011;16915;51.466;3.610;2023-03-02T13:23:22;16.25;;;10.23;;
30096;SDS011;16915;51.466;3.610;2023-03-02T13:25:53;18.30;;;10.77;;
30096;SDS011;16915;51.466;3.610;2023-03-02T13:30:57;11.55;;;8.88;;
30096;SDS011;16915;51.466;3.610;2023-03-02T13:33:26;12.55;;;8.80;;
30096;SDS011;16915;51.466;3.610;2023-03-02T13:35:53;12.15;;;8.30;;
30096;SDS011;16915;51.466;3.610;2023-03-02T13:38:20;11.90;;;9.13;;
30096;SDS011;16915;51.466;3.610;2023-03-02T13:40:48;13.68;;;9.70;;
30096;SDS011;16915;51.466;3.610;2023-03-02T13:43:20;12.88;;;9.13;;
30096;SDS011;16915;51.466;3.610;2023-03-02T13:45:50;14.15;;;9.23;;
30096;SDS011;16915;51.466;3.610;2023-03-02T13:48:20;13.70;;;8.90;;
30096;SDS011;16915;51.466;3.610;2023-03-02T13:51:29;14.98;;;9.70;;
30096;SDS011;16915;51.466;3.610;2023-03-02T13:53:44;12.30;;;8.80;;
30096;SDS011;16915;51.466;3.610;2023-03-02T13:56:17;11.93;;;8.60;;
30096;SDS011;16915;51.466;3.610;2023-03-02T13:58:43;13.10;;;8.70;;
30096;SDS011;16915;51.466;3.610;2023-03-02T14:01:10;12.20;;;9.10;;
30096;SDS011;16915;51.466;3.610;2023-03-02T14:03:36;13.50;;;8.48;;
30096;SDS011;16915;51.466;3.610;2023-03-02T14:06:03;12.75;;;8.85;;
30096;SDS011;16915;51.466;3.610;2023-03-02T14:08:30;14.80;;;9.27;;
30096;SDS011;16915;51.466;3.610;2023-03-02T14:10:56;13.55;;;9.00;;
30096;SDS011;16915;51.466;3.610;2023-03-02T14:13:24;15.30;;;8.82;;
30096;SDS011;16915;51.466;3.610;2023-03-02T14:15:58;14.30;;;9.10;;
30096;SDS011;16915;51.466;3.610;2023-03-02T14:18:25;12.70;;;8.55;;
30096;SDS011;16915;51.466;3.610;2023-03-02T14:20:51;12.95;;;8.35;;
30096;SDS011;16915;51.466;3.610;2023-03-02T14:23:17;15.85;;;8.13;;
30096;SDS011;16915;51.466;3.610;2023-03-02T14:25:43;13.40;;;8.52;;
30096;SDS011;16915;51.466;3.610;2023-03-02T14:28:09;13.70;;;8.90;;
30096;SDS011;16915;51.466;3.610;2023-03-02T14:30:38;14.32;;;8.30;;
30096;SDS011;16915;51.466;3.610;2023-03-02T14:33:07;16.33;;;7.97;;
30096;SDS011;16915;51.466;3.610;2023-03-02T14:35:39;16.88;;;9.48;;
30096;SDS011;16915;51.466;3.610;2023-03-02T14:38:06;17.10;;;8.95;;
30096;SDS011;16915;51.466;3.610;2023-03-02T14:40:31;16.85;;;9.07;;
30096;SDS011;16915;51.466;3.610;2023-03-02T14:42:57;14.35;;;8.27;;
30096;SDS011;16915;51.466;3.610;2023-03-02T14:45:23;12.55;;;7.72;;
30096;SDS011;16915;51.466;3.610;2023-03-02T14:47:48;17.17;;;8.10;;
30096;SDS011;16915;51.466;3.610;2023-03-02T14:50:14;13.45;;;8.30;;
30096;SDS011;16915;51.466;3.610;2023-03-02T14:55:14;14.32;;;8.18;;
30096;SDS011;16915;51.466;3.610;2023-03-02T14:57:50;15.68;;;7.85;;
30096;SDS011;16915;51.466;3.610;2023-03-02T15:00:18;15.55;;;8.80;;
30096;SDS011;16915;51.466;3.610;2023-03-02T15:02:44;14.20;;;8.77;;
30096;SDS011;16915;51.466;3.610;2023-03-02T15:05:10;14.50;;;7.93;;
30096;SDS011;16915;51.466;3.610;2023-03-02T15:07:35;16.23;;;8.07;;
30096;SDS011;16915;51.466;3.610;2023-03-02T15:10:03;15.32;;;8.77;;
30096;SDS011;16915;51.466;3.610;2023-03-02T15:12:30;11.75;;;7.75;;
30096;SDS011;16915;51.466;3.610;2023-03-02T15:14:55;16.63;;;9.32;;
30096;SDS011;16915;51.466;3.610;2023-03-02T15:17:21;16.30;;;8.82;;
30096;SDS011;16915;51.466;3.610;2023-03-02T15:19:47;15.35;;;8.77;;
30096;SDS011;16915;51.466;3.610;2023-03-02T15:22:12;16.50;;;9.75;;
30096;SDS011;16915;51.466;3.610;2023-03-02T15:24:38;18.80;;;10.43;;
30096;SDS011;16915;51.466;3.610;2023-03-02T15:27:04;20.20;;;10.50;;
30096;SDS011;16915;51.466;3.610;2023-03-02T15:29:29;20.58;;;10.40;;
30096;SDS011;16915;51.466;3.610;2023-03-02T15:31:55;17.65;;;9.90;;
30096;SDS011;16915;51.466;3.610;2023-03-02T15:34:20;25.02;;;10.77;;
30096;SDS011;16915;51.466;3.610;2023-03-02T15:36:46;22.25;;;11.07;;
30096;SDS011;16915;51.466;3.610;2023-03-02T15:39:12;20.50;;;10.02;;